sensor_id;sensor_type;location;lat;lon;timestamp;P1;durP1;ratioP1;P2;durP2;ratioP2
45342;SDS011;31077;50.872;4.352;2022-11-30T18:10:36;23.52;;;14.35;;
45342;SDS011;31077;50.872;4.352;2022-11-30T18:13:04;26.13;;;13.75;;
45342;SDS011;31077;50.872;4.352;2022-11-30T18:15:31;21.77;;;15.13;;
45342;SDS011;31077;50.872;4.352;2022-11-30T18:17:56;20.65;;;14.02;;
45342;SDS011;31077;50.872;4.352;2022-11-30T18:20:25;20.33;;;14.63;;
45342;SDS011;31077;50.872;4.352;2022-11-30T18:22:52;21.80;;;14.63;;
45342;SDS011;31077;50.872;4.352;2022-11-30T18:25:18;20.98;;;15.15;;
45342;SDS011;31077;50.872;4.352;2022-11-30T18:27:44;16.92;;;12.80;;
45342;SDS011;31077;50.872;4.352;2022-11-30T18:30:10;20.92;;;14.35;;
45342;SDS011;31077;50.872;4.352;2022-11-30T18:32:36;20.92;;;14.45;;
45342;SDS011;31077;50.872;4.352;2022-11-30T18:35:02;18.13;;;13.55;;
45342;SDS011;31077;50.872;4.352;2022-11-30T18:37:28;19.55;;;14.73;;
45342;SDS011;31077;50.872;4.352;2022-11-30T18:39:53;21.00;;;15.10;;
45342;SDS011;31077;50.872;4.352;2022-11-30T18:42:19;25.65;;;14.32;;
45342;SDS011;31077;50.872;4.352;2022-11-30T18:44:46;19.85;;;14.75;;
45342;SDS011;31077;50.872;4.352;2022-11-30T18:47:12;21.15;;;15.20;;
45342;SDS011;31077;50.872;4.352;2022-11-30T18:49:38;21.05;;;15.23;;
45342;SDS011;31077;50.872;4.352;2022-11-30T18:52:03;22.95;;;17.27;;
45342;SDS011;31077;50.872;4.352;2022-11-30T18:54:29;21.85;;;15.02;;
45342;SDS011;31077;50.872;4.352;2022-11-30T18:56:55;19.77;;;14.82;;
45342;SDS011;31077;50.872;4.352;2022-11-30T18:59:21;23.33;;;15.85;;
45342;SDS011;31077;50.872;4.352;2022-11-30T19:01:47;20.98;;;14.95;;
45342;SDS011;31077;50.872;4.352;2022-11-30T19:04:15;19.15;;;14.40;;
45342;SDS011;31077;50.872;4.352;2022-11-30T19:06:41;22.88;;;14.90;;
45342;SDS011;31077;50.872;4.352;2022-11-30T19:09:08;22.10;;;16.13;;
45342;SDS011;31077;50.872;4.352;2022-11-30T19:11:36;20.88;;;15.05;;
45342;SDS011;31077;50.872;4.352;2022-11-30T19:14:03;21.25;;;15.80;;
45342;SDS011;31077;50.872;4.352;2022-11-30T19:16:29;21.73;;;16.52;;
45342;SDS011;31077;50.872;4.352;2022-11-30T19:19:05;23.30;;;16.15;;
45342;SDS011;31077;50.872;4.352;2022-11-30T19:21:31;20.38;;;15.27;;
45342;SDS011;31077;50.872;4.352;2022-11-30T19:23:57;22.40;;;15.50;;
45342;SDS011;31077;50.872;4.352;2022-11-30T19:26:23;21.55;;;16.50;;
45342;SDS011;31077;50.872;4.352;2022-11-30T19:28:52;20.75;;;15.90;;
45342;SDS011;31077;50.872;4.352;2022-11-30T19:31:18;21.13;;;16.58;;
45342;SDS011;31077;50.872;4.352;2022-11-30T19:33:46;21.83;;;15.88;;
45342;SDS011;31077;50.872;4.352;2022-11-30T19:36:14;23.58;;;15.70;;
45342;SDS011;31077;50.872;4.352;2022-11-30T19:38:41;20.88;;;15.82;;
45342;SDS011;31077;50.872;4.352;2022-11-30T19:41:08;20.45;;;14.15;;
45342;SDS011;31077;50.872;4.352;2022-11-30T19:43:36;20.50;;;16.13;;
45342;SDS011;31077;50.872;4.352;2022-11-30T19:46:03;23.88;;;16.63;;
45342;SDS011;31077;50.872;4.352;2022-11-30T19:48:32;18.23;;;14.55;;
45342;SDS011;31077;50.872;4.352;2022-11-30T19:50:58;20.95;;;15.52;;
45342;SDS011;31077;50.872;4.352;2022-11-30T19:53:27;18.63;;;14.07;;
45342;SDS011;31077;50.872;4.352;2022-11-30T19:55:53;22.02;;;15.05;;
45342;SDS011;31077;50.872;4.352;2022-11-30T19:58:19;21.75;;;15.27;;
45342;SDS011;31077;50.872;4.352;2022-11-30T20:00:45;18.08;;;14.77;;
45342;SDS011;31077;50.872;4.352;2022-11-30T20:03:11;21.88;;;15.60;;
45342;SDS011;31077;50.872;4.352;2022-11-30T20:05:37;17.48;;;13.77;;
45342;SDS011;31077;50.872;4.352;2022-11-30T20:08:03;21.80;;;15.38;;
45342;SDS011;31077;50.872;4.352;2022-11-30T20:10:29;21.92;;;15.32;;
45342;SDS011;31077;50.872;4.352;2022-11-30T20:12:55;17.52;;;14.93;;
45342;SDS011;31077;50.872;4.352;2022-11-30T20:15:21;21.08;;;14.77;;
45342;SDS011;31077;50.872;4.352;2022-11-30T20:17:47;17.25;;;14.27;;
45342;SDS011;31077;50.872;4.352;2022-11-30T20:20:12;17.85;;;13.93;;
45342;SDS011;31077;50.872;4.352;2022-11-30T20:22:38;19.92;;;14.88;;
45342;SDS011;31077;50.872;4.352;2022-11-30T20:25:04;18.70;;;14.73;;
45342;SDS011;31077;50.872;4.352;2022-11-30T20:27:30;17.38;;;13.68;;
45342;SDS011;31077;50.872;4.352;2022-11-30T20:29:58;19.20;;;15.38;;
45342;SDS011;31077;50.872;4.352;2022-11-30T20:32:24;17.75;;;14.07;;
45342;SDS011;31077;50.872;4.352;2022-11-30T20:34:49;18.48;;;14.07;;
45342;SDS011;31077;50.872;4.352;2022-11-30T20:37:15;16.58;;;13.50;;
45342;SDS011;31077;50.872;4.352;2022-11-30T20:39:42;16.80;;;13.93;;
45342;SDS011;31077;50.872;4.352;2022-11-30T20:42:08;16.27;;;12.90;;
45342;SDS011;31077;50.872;4.352;2022-11-30T20:44:34;18.33;;;14.10;;
45342;SDS011;31077;50.872;4.352;2022-11-30T20:46:59;17.42;;;13.95;;
45342;SDS011;31077;50.872;4.352;2022-11-30T20:49:28;15.55;;;12.45;;
45342;SDS011;31077;50.872;4.352;2022-11-30T20:51:54;17.38;;;14.10;;
45342;SDS011;31077;50.872;4.352;2022-11-30T20:54:20;18.30;;;13.48;;
45342;SDS011;31077;50.872;4.352;2022-11-30T20:56:46;16.08;;;12.95;;
45342;SDS011;31077;50.872;4.352;2022-11-30T20:59:13;16.23;;;12.73;;
45342;SDS011;31077;50.872;4.352;2022-11-30T21:01:40;15.45;;;12.55;;
45342;SDS011;31077;50.872;4.352;2022-11-30T21:04:07;17.35;;;13.32;;
45342;SDS011;31077;50.872;4.352;2022-11-30T21:06:33;15.07;;;12.40;;
45342;SDS011;31077;50.872;4.352;2022-11-30T21:08:59;19.33;;;13.43;;
45342;SDS011;31077;50.872;4.352;2022-11-30T21:11:25;16.02;;;12.65;;
45342;SDS011;31077;50.872;4.352;2022-11-30T21:13:52;14.48;;;11.70;;
45342;SDS011;31077;50.872;4.352;2022-11-30T21:16:19;15.70;;;12.40;;
45342;SDS011;31077;50.872;4.352;2022-11-30T21:18:46;15.95;;;12.35;;
45342;SDS011;31077;50.872;4.352;2022-11-30T21:21:13;14.98;;;11.52;;
45342;SDS011;31077;50.872;4.352;2022-11-30T21:23:42;13.98;;;11.93;;
45342;SDS011;31077;50.872;4.352;2022-11-30T21:28:40;14.05;;;11.70;;
45342;SDS011;31077;50.872;4.352;2022-11-30T21:31:06;14.48;;;11.15;;
45342;SDS011;31077;50.872;4.352;2022-11-30T21:33:32;15.75;;;11.68;;
45342;SDS011;31077;50.872;4.352;2022-11-30T21:35:58;14.88;;;11.00;;
45342;SDS011;31077;50.872;4.352;2022-11-30T21:38:24;14.05;;;10.75;;
45342;SDS011;31077;50.872;4.352;2022-11-30T21:40:53;16.63;;;10.55;;
45342;SDS011;31077;50.872;4.352;2022-11-30T21:43:24;12.50;;;9.82;;
45342;SDS011;31077;50.872;4.352;2022-11-30T21:46:00;14.80;;;10.55;;
45342;SDS011;31077;50.872;4.352;2022-11-30T21:48:31;12.93;;;10.55;;
45342;SDS011;31077;50.872;4.352;2022-11-30T21:51:00;12.70;;;9.88;;
45342;SDS011;31077;50.872;4.352;2022-11-30T21:53:30;13.38;;;9.90;;
45342;SDS011;31077;50.872;4.352;2022-11-30T21:56:09;14.48;;;10.50;;
45342;SDS011;31077;50.872;4.352;2022-11-30T21:58:36;14.98;;;10.48;;
45342;SDS011;31077;50.872;4.352;2022-11-30T22:01:03;11.98;;;9.30;;
45342;SDS011;31077;50.872;4.352;2022-11-30T22:03:29;11.73;;;9.95;;
45342;SDS011;31077;50.872;4.352;2022-11-30T22:06:05;17.92;;;10.30;;
45342;SDS011;31077;50.872;4.352;2022-11-30T22:08:32;10.38;;;8.35;;
45342;SDS011;31077;50.872;4.352;2022-11-30T22:11:03;12.23;;;9.30;;
45342;SDS011;31077;50.872;4.352;2022-11-30T22:13:33;15.32;;;9.88;;
45342;SDS011;31077;50.872;4.352;2022-11-30T22:16:09;11.60;;;9.20;;
45342;SDS011;31077;50.872;4.352;2022-11-30T22:18:36;10.68;;;8.75;;
45342;SDS011;31077;50.872;4.352;2022-11-30T22:23:29;11.32;;;8.93;;
45342;SDS011;31077;50.872;4.352;2022-11-30T22:28:48;12.10;;;9.20;;
45342;SDS011;31077;50.872;4.352;2022-11-30T22:31:17;15.13;;;7.93;;
45342;SDS011;31077;50.872;4.352;2022-11-30T22:33:44;11.75;;;9.00;;
45342;SDS011;31077;50.872;4.352;2022-11-30T22:36:16;12.05;;;9.68;;
45342;SDS011;31077;50.872;4.352;2022-11-30T22:38:43;13.48;;;8.65;;
45342;SDS011;31077;50.872;4.352;2022-11-30T22:41:11;13.98;;;8.27;;
45342;SDS011;31077;50.872;4.352;2022-11-30T22:43:38;11.80;;;8.20;;
45342;SDS011;31077;50.872;4.352;2022-11-30T22:46:04;13.52;;;9.27;;
45342;SDS011;31077;50.872;4.352;2022-11-30T22:48:31;11.63;;;8.95;;
45342;SDS011;31077;50.872;4.352;2022-11-30T22:51:11;12.32;;;8.52;;
45342;SDS011;31077;50.872;4.352;2022-11-30T22:53:39;20.70;;;9.65;;
45342;SDS011;31077;50.872;4.352;2022-11-30T22:56:06;12.68;;;9.15;;
45342;SDS011;31077;50.872;4.352;2022-11-30T22:58:36;12.85;;;9.60;;
45342;SDS011;31077;50.872;4.352;2022-11-30T23:03:41;12.30;;;8.77;;
45342;SDS011;31077;50.872;4.352;2022-11-30T23:06:08;11.65;;;9.38;;
45342;SDS011;31077;50.872;4.352;2022-11-30T23:08:35;10.75;;;7.97;;
45342;SDS011;31077;50.872;4.352;2022-11-30T23:11:03;11.30;;;8.68;;
45342;SDS011;31077;50.872;4.352;2022-11-30T23:13:31;10.85;;;8.57;;
45342;SDS011;31077;50.872;4.352;2022-11-30T23:15:59;12.40;;;7.85;;
45342;SDS011;31077;50.872;4.352;2022-11-30T23:18:25;10.93;;;8.65;;
45342;SDS011;31077;50.872;4.352;2022-11-30T23:20:55;9.95;;;7.57;;
45342;SDS011;31077;50.872;4.352;2022-11-30T23:23:21;10.38;;;7.90;;
45342;SDS011;31077;50.872;4.352;2022-11-30T23:25:48;10.48;;;7.40;;
45342;SDS011;31077;50.872;4.352;2022-11-30T23:28:14;10.90;;;9.00;;
45342;SDS011;31077;50.872;4.352;2022-11-30T23:30:40;10.98;;;8.77;;
45342;SDS011;31077;50.872;4.352;2022-11-30T23:33:07;9.10;;;7.57;;
45342;SDS011;31077;50.872;4.352;2022-11-30T23:35:35;11.30;;;7.75;;
45342;SDS011;31077;50.872;4.352;2022-11-30T23:38:05;9.23;;;7.18;;
45342;SDS011;31077;50.872;4.352;2022-11-30T23:40:31;10.43;;;7.45;;
45342;SDS011;31077;50.872;4.352;2022-11-30T23:42:57;9.80;;;7.97;;
45342;SDS011;31077;50.872;4.352;2022-11-30T23:45:23;11.32;;;7.40;;
45342;SDS011;31077;50.872;4.352;2022-11-30T23:47:48;10.70;;;7.97;;
45342;SDS011;31077;50.872;4.352;2022-11-30T23:50:14;9.73;;;7.35;;
45342;SDS011;31077;50.872;4.352;2022-11-30T23:52:40;9.52;;;7.13;;
45342;SDS011;31077;50.872;4.352;2022-11-30T23:55:06;8.90;;;7.03;;
45342;SDS011;31077;50.872;4.352;2022-11-30T23:57:32;10.32;;;7.90;;
45342;SDS011;31077;50.872;4.352;2022-11-30T23:59:58;11.20;;;7.65;;
